createdAt,value
2023-10-15T07:55:36.584Z,100.00
2023-10-15T07:58:03.379Z,99.68
2023-10-15T08:00:35.204Z,99.43
2023-10-15T08:03:03.918Z,99.45
2023-10-15T08:05:35.983Z,98.35
2023-10-15T08:08:05.999Z,98.08
2023-10-15T08:10:35.089Z,99.14
2023-10-15T08:13:05.549Z,99.57
2023-10-15T08:15:35.049Z,100.00
2023-10-15T08:18:02.901Z,98.26
2023-10-15T08:20:29.825Z,98.08
2023-10-15T08:22:56.654Z,96.39
2023-10-15T08:25:23.668Z,96.57
2023-10-15T08:27:50.690Z,94.05
2023-10-15T08:30:18.969Z,94.95
2023-10-15T08:32:46.650Z,95.38
2023-10-15T08:35:17.389Z,95.51
2023-10-15T08:37:45.256Z,93.26
2023-10-15T08:40:18.956Z,92.90
2023-10-15T08:42:52.479Z,94.50
2023-10-15T08:45:23.230Z,93.59
2023-10-15T08:47:51.500Z,94.29
2023-10-15T08:50:21.546Z,93.87
2023-10-15T08:52:50.127Z,94.87
2023-10-15T08:55:17.898Z,95.74
2023-10-15T08:57:45.286Z,95.55
2023-10-15T09:00:31.478Z,93.14
2023-10-15T09:03:03.618Z,94.98
2023-10-15T09:05:35.339Z,94.98
2023-10-15T09:08:09.854Z,94.67
2023-10-15T09:10:41.752Z,93.24
2023-10-15T09:13:19.655Z,92.77
2023-10-15T09:15:51.539Z,91.66
2023-10-15T09:18:19.039Z,93.01
2023-10-15T09:20:53.041Z,92.91
2023-10-15T09:23:24.705Z,92.43
2023-10-15T09:25:57.049Z,91.95
2023-10-15T09:28:29.168Z,91.88
2023-10-15T09:31:06.788Z,91.08
2023-10-15T09:33:34.855Z,89.69
2023-10-15T09:36:04.327Z,90.21
2023-10-15T09:38:35.234Z,90.21
2023-10-15T09:41:03.203Z,89.40
2023-10-15T09:43:32.711Z,87.46
2023-10-15T09:46:00.052Z,88.03
2023-10-15T09:48:27.531Z,88.49
2023-10-15T09:50:58.337Z,88.58
2023-10-15T09:53:25.540Z,89.10
2023-10-15T09:55:53.683Z,88.88
2023-10-15T09:58:20.490Z,86.16
2023-10-15T10:00:54.659Z,86.08
2023-10-15T10:03:51.752Z,83.88
2023-10-15T10:06:38.325Z,84.69
2023-10-15T10:09:07.744Z,83.31
2023-10-15T10:11:35.586Z,84.48
2023-10-15T10:14:24.795Z,84.52
2023-10-15T10:16:54.078Z,84.22
2023-10-15T10:19:21.554Z,83.30
2023-10-15T10:21:48.929Z,85.04
2023-10-15T10:24:18.478Z,85.03
2023-10-15T10:26:55.020Z,85.75
2023-10-15T10:29:27.317Z,86.39
2023-10-15T10:32:00.209Z,83.59
2023-10-15T10:34:30.911Z,84.04
2023-10-15T10:36:57.847Z,83.72
2023-10-15T10:39:27.232Z,82.85
2023-10-15T10:42:00.801Z,82.64
2023-10-15T10:44:28.347Z,80.41
2023-10-15T10:46:57.414Z,81.55
2023-10-15T10:49:35.575Z,81.60
2023-10-15T10:52:17.158Z,82.00
2023-10-15T10:54:47.316Z,81.70
2023-10-15T10:57:19.343Z,81.59
2023-10-15T10:59:46.231Z,83.34
2023-10-15T11:02:14.638Z,83.63
2023-10-15T11:04:42.149Z,83.50
2023-10-15T11:07:10.715Z,83.46
2023-10-15T11:09:38.671Z,83.25
2023-10-15T11:12:10.549Z,84.74
2023-10-15T11:14:38.141Z,82.62
2023-10-15T11:17:06.949Z,82.69
2023-10-15T11:19:33.920Z,80.82
2023-10-15T11:22:00.750Z,75.14
2023-10-15T11:24:30.902Z,76.49
2023-10-15T11:26:57.832Z,76.70
2023-10-15T11:29:25.725Z,76.41
2023-10-15T11:31:58.186Z,75.46
2023-10-15T11:34:27.019Z,74.75
2023-10-15T11:36:57.568Z,73.32
2023-10-15T11:39:39.331Z,72.94
2023-10-15T11:42:08.776Z,75.23
2023-10-15T11:44:38.586Z,74.45
2023-10-15T11:47:18.693Z,74.35
2023-10-15T11:49:46.258Z,76.67
2023-10-15T11:52:16.143Z,76.25
2023-10-15T11:54:55.475Z,75.79
2023-10-15T11:57:26.803Z,76.43
2023-10-15T11:59:57.510Z,69.51
2023-10-15T12:02:27.705Z,79.73
2023-10-15T12:04:58.364Z,79.00
2023-10-15T12:07:25.797Z,83.41
2023-10-15T12:09:53.169Z,83.00
2023-10-15T12:12:20.046Z,94.01
2023-10-15T12:14:47.180Z,93.04
2023-10-15T12:17:17.493Z,93.08
2023-10-15T12:19:45.879Z,91.02
2023-10-15T12:22:16.176Z,92.14
2023-10-15T12:24:43.441Z,87.75
2023-10-15T12:27:10.257Z,83.61
2023-10-15T12:29:39.879Z,83.65
2023-10-15T12:32:10.061Z,82.67
2023-10-15T12:34:43.016Z,78.43
2023-10-15T12:37:13.991Z,75.04
2023-10-15T12:39:45.718Z,71.98
2023-10-15T12:42:12.765Z,68.41
2023-10-15T12:44:42.548Z,63.28
2023-10-15T12:47:09.706Z,65.29
2023-10-15T12:49:38.073Z,63.78
2023-10-15T12:52:05.931Z,63.47
2023-10-15T12:54:36.704Z,62.64
2023-10-15T12:57:05.639Z,64.47
2023-10-15T12:59:34.875Z,65.94
2023-10-15T13:02:04.091Z,68.85
2023-10-15T13:04:30.848Z,65.23
2023-10-15T13:06:57.584Z,63.88
2023-10-15T13:09:27.302Z,63.43
2023-10-15T13:11:54.834Z,65.21
2023-10-15T13:14:21.731Z,66.21
2023-10-15T13:16:51.642Z,70.96
2023-10-15T13:19:19.921Z,75.88
2023-10-15T13:21:48.120Z,81.48
2023-10-15T13:24:15.817Z,82.94
2023-10-15T13:26:43.448Z,78.58
2023-10-15T13:29:10.178Z,83.75
2023-10-15T13:31:37.103Z,78.93
2023-10-15T13:34:06.758Z,79.10
2023-10-15T13:36:34.979Z,80.12
2023-10-15T13:39:02.485Z,81.85
2023-10-15T13:41:30.554Z,81.85
2023-10-15T13:43:58.159Z,77.83
2023-10-15T13:46:24.975Z,77.99
2023-10-15T13:48:51.698Z,75.64
2023-10-15T13:51:19.246Z,74.40
2023-10-15T13:53:46.349Z,74.37
2023-10-15T13:56:14.181Z,76.40
2023-10-15T13:58:43.039Z,74.43
2023-10-15T14:01:11.499Z,73.35
2023-10-15T14:03:39.577Z,74.00
2023-10-15T14:06:06.844Z,74.65
2023-10-15T14:08:33.623Z,76.46
2023-10-15T14:11:02.645Z,76.84
2023-10-15T14:13:30.844Z,77.68
2023-10-15T14:16:02.584Z,79.69
2023-10-15T14:18:29.883Z,76.23
2023-10-15T14:20:57.377Z,75.84
2023-10-15T14:23:24.490Z,77.78
2023-10-15T14:25:51.393Z,76.74
2023-10-15T14:28:20.020Z,77.86
2023-10-15T14:30:47.216Z,77.44
2023-10-15T14:33:13.997Z,76.73
2023-10-15T14:35:41.548Z,75.79
2023-10-15T14:38:09.808Z,73.40
2023-10-15T14:40:39.483Z,74.24
2023-10-15T14:43:06.938Z,71.82
2023-10-15T14:45:35.057Z,72.07
2023-10-15T14:48:01.774Z,71.13
2023-10-15T14:50:28.573Z,69.80
2023-10-15T14:52:55.379Z,69.76
2023-10-15T14:55:22.029Z,70.93
2023-10-15T14:57:49.548Z,73.47
2023-10-15T15:00:16.516Z,73.44
2023-10-15T15:02:44.948Z,75.06
2023-10-15T15:05:11.963Z,74.37
2023-10-15T15:07:39.622Z,75.05
2023-10-15T15:10:08.091Z,76.35
2023-10-15T15:12:34.760Z,75.51
2023-10-15T15:15:02.754Z,72.95
2023-10-15T15:17:29.484Z,73.90
2023-10-15T15:19:56.383Z,71.90
2023-10-15T15:22:23.546Z,72.39
2023-10-15T15:24:50.245Z,71.68
2023-10-15T15:27:17.220Z,71.73
2023-10-15T15:29:46.471Z,70.74
2023-10-15T15:32:13.089Z,72.18
2023-10-15T15:34:39.913Z,72.37
2023-10-15T15:37:07.462Z,72.20
2023-10-15T15:39:34.133Z,72.56
2023-10-15T15:42:00.840Z,73.62
2023-10-15T15:44:27.690Z,74.31
2023-10-15T15:46:55.099Z,75.14
2023-10-15T15:49:22.334Z,75.54
2023-10-15T15:51:51.595Z,76.63
2023-10-15T15:54:22.547Z,76.74
2023-10-15T15:56:49.163Z,76.79
2023-10-15T15:59:15.920Z,78.17
2023-10-15T16:01:45.693Z,79.50
2023-10-15T16:04:13.236Z,79.67
2023-10-15T16:06:40.388Z,80.88
2023-10-15T16:09:11.452Z,80.09
2023-10-15T16:11:38.817Z,81.58
2023-10-15T16:14:05.804Z,81.89
2023-10-15T16:16:32.508Z,81.90
2023-10-15T16:18:59.188Z,81.60
2023-10-15T16:21:25.860Z,81.83
2023-10-15T16:23:52.471Z,81.90
2023-10-15T16:26:19.801Z,82.45
2023-10-15T16:28:46.580Z,82.11
2023-10-15T16:31:13.321Z,82.09
2023-10-15T16:33:41.039Z,82.58
2023-10-15T16:36:08.616Z,82.54
2023-10-15T16:38:35.488Z,82.79
2023-10-15T16:41:02.260Z,83.94
2023-10-15T16:43:30.587Z,84.99
2023-10-15T16:45:59.044Z,84.00
2023-10-15T16:48:26.346Z,86.10
2023-10-15T16:50:53.236Z,86.17
2023-10-15T16:53:19.993Z,85.15
2023-10-15T16:55:46.939Z,84.95
2023-10-15T16:58:13.683Z,85.03
2023-10-15T17:00:41.025Z,85.08
2023-10-15T17:03:08.683Z,85.81
2023-10-15T17:05:36.270Z,86.60
2023-10-15T17:08:03.971Z,85.20
2023-10-15T17:10:30.856Z,86.92
2023-10-15T17:12:57.721Z,87.90
2023-10-15T17:15:24.579Z,88.70
2023-10-15T17:17:51.351Z,88.11
2023-10-15T17:20:23.334Z,89.61
2023-10-15T17:22:50.818Z,89.83
2023-10-15T17:25:17.588Z,90.38
2023-10-15T17:27:44.709Z,89.87
2023-10-15T17:32:41.776Z,90.34
2023-10-15T17:35:09.064Z,90.59
2023-10-15T17:37:35.879Z,91.15
2023-10-15T17:40:02.621Z,90.80
2023-10-15T17:42:29.361Z,91.23
2023-10-15T17:44:56.813Z,91.37
2023-10-15T17:47:23.708Z,92.13
2023-10-15T17:49:50.492Z,92.81
2023-10-15T17:52:17.451Z,92.88
2023-10-15T17:54:44.907Z,92.28
2023-10-15T17:57:13.114Z,93.45
2023-10-15T17:59:39.954Z,92.73
2023-10-15T18:04:35.174Z,92.45
2023-10-15T18:07:01.893Z,93.71
2023-10-15T18:09:28.677Z,93.90
2023-10-15T18:11:55.350Z,93.20
2023-10-15T18:14:22.092Z,92.89
2023-10-15T18:16:48.742Z,93.49
2023-10-15T18:19:15.505Z,93.61
2023-10-15T18:21:42.252Z,93.24
2023-10-15T18:24:09.330Z,92.84
2023-10-15T18:26:36.005Z,93.66
2023-10-15T18:29:02.688Z,92.16
2023-10-15T18:31:29.441Z,93.18
2023-10-15T18:33:56.176Z,92.43
2023-10-15T18:36:25.136Z,93.32
2023-10-15T18:38:51.909Z,93.45
2023-10-15T18:41:18.710Z,93.37
2023-10-15T18:43:45.687Z,94.61
2023-10-15T18:46:12.465Z,94.72
2023-10-15T18:48:39.221Z,94.36
2023-10-15T18:51:27.572Z,95.03
2023-10-15T18:53:52.534Z,95.24
2023-10-15T18:56:19.188Z,96.17
2023-10-15T18:58:52.858Z,95.71
2023-10-15T19:01:23.073Z,96.12
2023-10-15T19:03:49.845Z,96.71
2023-10-15T19:06:16.748Z,96.42
2023-10-15T19:08:43.456Z,96.43
2023-10-15T19:11:16.050Z,96.96
2023-10-15T19:13:43.686Z,96.88
2023-10-15T19:16:10.984Z,96.55
2023-10-15T19:18:38.738Z,96.94
2023-10-15T19:21:05.640Z,96.69
2023-10-15T19:23:32.370Z,97.47
2023-10-15T19:26:09.628Z,97.23
2023-10-15T19:28:37.488Z,97.27
2023-10-15T19:31:05.368Z,97.11
2023-10-15T19:33:32.831Z,97.55
2023-10-15T19:36:01.047Z,97.06
2023-10-15T19:38:28.621Z,97.53
2023-10-15T19:40:55.572Z,97.58
2023-10-15T19:43:22.752Z,97.68
2023-10-15T19:45:50.301Z,97.81
2023-10-15T19:48:18.086Z,97.80
2023-10-15T19:50:44.875Z,98.22
2023-10-15T19:53:12.293Z,97.40
2023-10-15T19:55:39.422Z,97.77
2023-10-15T19:58:06.802Z,97.73
2023-10-15T20:00:35.812Z,97.26
2023-10-15T20:03:03.007Z,97.66
2023-10-15T20:05:30.575Z,97.91
2023-10-15T20:07:57.304Z,97.68
2023-10-15T20:10:23.972Z,99.14
2023-10-15T20:12:50.891Z,100.00
2023-10-15T20:15:20.482Z,99.49
2023-10-15T20:17:48.143Z,99.12
2023-10-15T20:20:16.571Z,98.50
2023-10-15T20:22:44.686Z,99.22
2023-10-15T20:25:12.988Z,98.58
2023-10-15T20:27:41.608Z,98.43
2023-10-15T20:30:11.965Z,98.69
2023-10-15T20:32:53.936Z,98.57
2023-10-15T20:35:21.935Z,97.52
2023-10-15T20:37:49.698Z,98.69
2023-10-15T20:40:16.595Z,98.81
2023-10-15T20:42:50.171Z,98.67
2023-10-15T20:45:19.610Z,98.31
2023-10-15T20:47:48.548Z,98.64
2023-10-15T20:50:16.833Z,99.69
2023-10-15T20:52:45.239Z,100.00
2023-10-15T20:55:13.094Z,100.00
2023-10-15T20:57:41.058Z,100.00
2023-10-15T21:00:13.306Z,100.00
2023-10-15T21:02:47.407Z,99.65
2023-10-15T21:05:15.712Z,99.55
2023-10-15T21:07:44.237Z,99.53
2023-10-15T21:10:13.080Z,99.34
2023-10-15T21:12:44.665Z,98.70
2023-10-15T21:15:13.240Z,99.04
2023-10-15T21:17:41.633Z,99.49
2023-10-15T21:20:12.432Z,98.39
2023-10-15T21:22:40.759Z,98.47
2023-10-15T21:25:11.443Z,97.64
2023-10-15T21:27:39.085Z,98.50
2023-10-15T21:30:10.807Z,98.30
2023-10-15T21:32:38.064Z,97.95
